Haro, Spain
Current Conditions -  °F | °C
As of 10:00 AM on Sunday 21 Dec 2014 (Local Time) from LEVT Reporting Station
Broken Clouds Broken Clouds  
Wind Chill: 45°   Ceiling: 2500
Heat Index: 45°   Visibility: 6mi
Dew Point: 45°   Wind: 0mph
Humidity: 100%   Direction: NA
Pressure: 30.56"   Gusts: NA
Location:  42.58°N, 2.85°W
Report Text: LEVT 210900Z 00000KT 9999 FEW014 BKN025 07/07 Q1035
Loading
Personal Weather Stations






























Interactive Weather Map New forecast layout! Learn more

10-Day Weather Forecast

Advertisements
Track Severe Weather on mobile